Time;durP1;ratioP1;P1;durP2;ratioP2;P2;SDS_P1;SDS_P2;PMS_P1;PMS_P2;Temp;Humidity;BMP_temperature;BMP_pressure;BME280_temperature;BME280_humidity;BME280_pressure;Samples;Min_cycle;Max_cycle;Signal;HPM_P1;HPM_P2
2022/07/17 00:00:42;;;;;;;4.70;2.85;;;12.00;99.90;;;;;;5035533;28;20474;-78
2022/07/17 00:03:11;;;;;;;5.43;2.35;;;12.00;99.90;;;;;;5087464;28;20451;-78
2022/07/17 00:05:37;;;;;;;8.95;2.80;;;11.90;99.90;;;;;;5086229;28;20052;-78
2022/07/17 00:08:06;;;;;;;4.20;2.35;;;11.90;99.90;;;;;;5088983;28;20039;-79
2022/07/17 00:10:36;;;;;;;4.90;2.40;;;11.90;99.90;;;;;;5097800;28;20035;-78
2022/07/17 00:13:02;;;;;;;5.50;2.53;;;11.90;99.90;;;;;;5081330;28;20032;-79
2022/07/17 00:15:28;;;;;;;6.32;2.40;;;11.80;99.90;;;;;;5077585;28;20039;-78
2022/07/17 00:17:54;;;;;;;4.53;2.28;;;11.70;99.90;;;;;;5087976;28;20039;-79
2022/07/17 00:20:20;;;;;;;6.28;2.10;;;11.60;99.90;;;;;;5087737;28;20098;-79
2022/07/17 00:22:46;;;;;;;5.95;2.30;;;11.60;99.90;;;;;;5088027;28;20528;-78
2022/07/17 00:25:12;;;;;;;6.28;2.22;;;11.60;99.90;;;;;;5062479;28;20123;-80
2022/07/17 00:27:39;;;;;;;7.65;2.42;;;11.50;99.90;;;;;;5054052;28;20170;-78
2022/07/17 00:30:07;;;;;;;6.13;2.03;;;11.50;99.90;;;;;;5062237;28;20045;-78
2022/07/17 00:32:33;;;;;;;4.53;2.30;;;11.40;99.90;;;;;;5071528;28;20166;-77
2022/07/17 00:34:59;;;;;;;4.30;2.40;;;11.30;99.90;;;;;;5097038;28;20040;-79
2022/07/17 00:37:24;;;;;;;5.65;2.28;;;11.20;99.90;;;;;;5054723;28;20040;-78
2022/07/17 00:39:50;;;;;;;2.85;2.03;;;11.20;99.90;;;;;;5055200;28;20064;-78
2022/07/17 00:42:17;;;;;;;4.25;1.98;;;11.20;99.90;;;;;;5072020;28;20107;-78
2022/07/17 00:44:44;;;;;;;7.47;2.00;;;11.20;99.90;;;;;;5088514;28;20043;-78
2022/07/17 00:47:19;;;;;;;4.75;2.50;;;11.20;99.90;;;;;;5086001;28;20417;-78
2022/07/17 00:49:46;;;;;;;5.40;2.22;;;11.20;99.90;;;;;;5101033;28;20035;-79
2022/07/17 00:52:13;;;;;;;5.00;2.05;;;11.20;99.90;;;;;;5066413;28;20036;-79
2022/07/17 00:54:40;;;;;;;4.75;2.13;;;11.10;99.90;;;;;;5050424;28;20043;-78
2022/07/17 00:57:08;;;;;;;3.88;2.65;;;11.20;99.90;;;;;;5070917;28;20109;-79
2022/07/17 00:59:34;;;;;;;5.53;2.22;;;11.10;99.90;;;;;;5069209;28;20032;-78
2022/07/17 01:02:06;;;;;;;4.70;1.90;;;11.10;99.90;;;;;;5087923;28;21323;-78
2022/07/17 01:04:36;;;;;;;8.95;2.35;;;11.00;99.90;;;;;;5088401;28;20190;-79
2022/07/17 01:07:04;;;;;;;3.85;2.50;;;11.00;99.90;;;;;;5063117;28;20098;-79
2022/07/17 01:09:31;;;;;;;3.47;2.00;;;10.90;99.90;;;;;;5093849;28;20054;-79
2022/07/17 01:11:57;;;;;;;3.55;2.20;;;10.90;99.90;;;;;;5087913;28;20032;-80
2022/07/17 01:14:24;;;;;;;3.60;2.03;;;10.90;99.90;;;;;;5089040;28;20036;-79
2022/07/17 01:16:51;;;;;;;9.18;2.50;;;10.80;99.90;;;;;;5068406;28;20109;-79
2022/07/17 01:19:20;;;;;;;4.38;2.90;;;10.80;99.90;;;;;;5070793;28;20038;-79
2022/07/17 01:21:49;;;;;;;4.70;2.30;;;10.70;99.90;;;;;;5069581;28;20032;-79
2022/07/17 01:24:15;;;;;;;5.65;2.60;;;10.70;99.90;;;;;;5088782;28;20036;-79
2022/07/17 01:26:43;;;;;;;4.38;2.78;;;10.70;99.90;;;;;;5086791;28;20435;-78
2022/07/17 01:29:10;;;;;;;3.72;2.63;;;10.70;99.90;;;;;;5066609;28;20069;-78
2022/07/17 01:31:37;;;;;;;5.10;2.60;;;10.60;99.90;;;;;;5070451;28;20094;-78
2022/07/17 01:34:07;;;;;;;7.07;3.25;;;10.60;99.90;;;;;;5086385;28;20127;-78
2022/07/17 01:36:33;;;;;;;5.25;2.90;;;10.60;99.90;;;;;;5086712;28;20032;-79
2022/07/17 01:38:59;;;;;;;4.78;2.90;;;10.50;99.90;;;;;;5070923;28;20485;-78
2022/07/17 01:41:24;;;;;;;5.45;2.63;;;10.50;99.90;;;;;;5085729;28;20092;-78
2022/07/17 01:43:50;;;;;;;4.50;2.90;;;10.50;99.90;;;;;;5070107;28;20036;-78
2022/07/17 01:46:16;;;;;;;6.45;3.13;;;10.50;99.90;;;;;;5085834;28;20043;-78
2022/07/17 01:48:42;;;;;;;4.82;2.75;;;10.40;99.90;;;;;;5085334;28;20090;-78
2022/07/17 01:51:07;;;;;;;5.00;3.00;;;10.40;99.90;;;;;;5067899;28;20033;-79
2022/07/17 01:53:33;;;;;;;5.38;2.88;;;10.30;99.90;;;;;;5085058;28;20056;-79
2022/07/17 01:55:59;;;;;;;6.60;3.20;;;10.40;99.90;;;;;;5052505;28;20033;-79
2022/07/17 01:58:25;;;;;;;19.48;3.90;;;10.40;99.90;;;;;;5050744;28;20036;-79
2022/07/17 02:00:52;;;;;;;6.53;3.30;;;10.30;99.90;;;;;;5085547;28;20119;-78
2022/07/17 02:03:18;;;;;;;6.93;3.10;;;10.30;99.90;;;;;;5056755;28;20064;-78
2022/07/17 02:05:44;;;;;;;7.47;3.00;;;10.30;99.90;;;;;;5071738;28;20040;-78
2022/07/17 02:08:09;;;;;;;8.02;3.47;;;10.20;99.90;;;;;;5062514;28;20405;-78
2022/07/17 02:10:35;;;;;;;8.88;3.20;;;10.20;99.90;;;;;;5082501;28;20513;-78
2022/07/17 02:13:01;;;;;;;6.05;2.80;;;10.20;99.90;;;;;;5057299;28;21906;-78
2022/07/17 02:15:27;;;;;;;6.82;3.25;;;10.20;99.90;;;;;;5088397;28;20032;-79
2022/07/17 02:17:53;;;;;;;9.05;3.47;;;10.20;99.90;;;;;;5090582;28;20067;-78
2022/07/17 02:20:19;;;;;;;4.45;2.80;;;10.20;99.90;;;;;;5073842;28;20059;-79
2022/07/17 02:22:45;;;;;;;5.75;3.35;;;10.20;99.90;;;;;;5055346;28;20063;-79
2022/07/17 02:25:11;;;;;;;9.73;3.83;;;10.20;99.90;;;;;;5086948;28;20173;-79
2022/07/17 02:27:38;;;;;;;4.65;2.72;;;10.20;99.90;;;;;;5071159;28;20031;-79
2022/07/17 02:30:15;;;;;;;7.35;3.10;;;10.20;99.90;;;;;;5068307;28;20048;-79
2022/07/17 02:32:42;;;;;;;4.55;2.72;;;10.20;99.90;;;;;;5085258;28;20075;-79
2022/07/17 02:35:09;;;;;;;7.18;3.45;;;10.20;99.90;;;;;;5071150;28;20066;-79
2022/07/17 02:37:36;;;;;;;5.28;2.95;;;10.10;99.90;;;;;;5055147;28;20554;-78
2022/07/17 02:40:04;;;;;;;7.30;3.42;;;10.10;99.90;;;;;;5072301;28;20388;-79
2022/07/17 02:42:30;;;;;;;7.53;3.58;;;10.10;99.90;;;;;;5088881;28;20451;-79
2022/07/17 02:44:58;;;;;;;4.97;2.85;;;10.20;99.90;;;;;;5070498;28;20028;-78
2022/07/17 02:47:29;;;;;;;6.25;2.97;;;10.20;99.90;;;;;;5088982;28;20109;-78
2022/07/17 02:49:54;;;;;;;4.93;2.80;;;10.20;99.90;;;;;;5072109;28;20076;-79
2022/07/17 02:52:20;;;;;;;5.55;2.70;;;10.20;99.90;;;;;;5071891;28;20044;-78
2022/07/17 02:54:47;;;;;;;9.73;2.92;;;10.20;99.90;;;;;;5085457;28;20040;-78
2022/07/17 02:57:13;;;;;;;6.53;3.17;;;10.20;99.90;;;;;;5082112;28;20028;-78
2022/07/17 02:59:39;;;;;;;3.85;3.03;;;10.20;99.90;;;;;;5085055;28;20044;-78
2022/07/17 03:02:05;;;;;;;4.60;3.00;;;10.20;99.90;;;;;;5092352;28;20070;-78
2022/07/17 03:04:31;;;;;;;4.65;2.95;;;10.10;99.90;;;;;;5046214;28;20064;-78
2022/07/17 03:06:57;;;;;;;10.90;3.60;;;10.10;99.90;;;;;;5067551;28;20586;-77
2022/07/17 03:09:22;;;;;;;5.22;3.10;;;10.10;99.90;;;;;;5078415;28;20044;-78
2022/07/17 03:11:48;;;;;;;6.70;3.40;;;10.10;99.90;;;;;;5052770;28;20032;-78
2022/07/17 03:14:14;;;;;;;3.92;3.00;;;10.00;99.90;;;;;;5070001;28;20036;-79
2022/07/17 03:16:39;;;;;;;4.50;2.95;;;10.00;99.90;;;;;;5070250;28;20071;-79
2022/07/17 03:19:05;;;;;;;5.57;3.20;;;10.00;99.90;;;;;;5087388;28;20039;-79
2022/07/17 03:21:31;;;;;;;6.97;3.40;;;9.90;99.90;;;;;;5089478;28;20035;-79
2022/07/17 03:23:57;;;;;;;6.50;3.35;;;9.90;99.90;;;;;;5088362;28;20481;-78
2022/07/17 03:26:22;;;;;;;4.50;3.35;;;9.80;99.90;;;;;;5072924;28;20073;-79
2022/07/17 03:28:48;;;;;;;4.95;3.28;;;9.70;99.90;;;;;;5052707;28;20204;-79
2022/07/17 03:31:14;;;;;;;6.43;3.08;;;9.70;99.90;;;;;;5088616;28;20048;-79
2022/07/17 03:33:39;;;;;;;7.00;3.40;;;9.70;99.90;;;;;;5070136;28;20039;-79
2022/07/17 03:36:06;;;;;;;5.53;2.92;;;9.60;99.90;;;;;;5085201;28;20040;-79
2022/07/17 03:38:32;;;;;;;5.43;3.28;;;9.60;99.90;;;;;;5071221;28;20115;-79
2022/07/17 03:40:57;;;;;;;5.68;3.35;;;9.60;99.90;;;;;;5053525;28;20067;-79
2022/07/17 03:43:24;;;;;;;7.10;3.20;;;9.60;99.90;;;;;;5089034;28;20048;-79
2022/07/17 03:45:50;;;;;;;4.78;2.85;;;9.60;99.90;;;;;;5071143;28;20654;-79
2022/07/17 03:48:16;;;;;;;6.25;3.40;;;9.60;99.90;;;;;;5087501;28;20436;-79
2022/07/17 03:50:42;;;;;;;5.50;3.20;;;9.70;99.90;;;;;;5085639;28;20039;-79
2022/07/17 03:53:08;;;;;;;4.55;3.22;;;9.60;99.90;;;;;;5055708;28;20036;-78
2022/07/17 03:55:34;;;;;;;9.60;3.20;;;9.60;99.90;;;;;;5088673;28;20129;-78
2022/07/17 03:58:00;;;;;;;5.63;3.00;;;9.70;99.90;;;;;;5085534;28;20028;-79
2022/07/17 04:00:26;;;;;;;7.15;3.50;;;9.70;99.90;;;;;;5070834;28;20044;-79
2022/07/17 04:02:51;;;;;;;6.70;2.92;;;9.70;99.90;;;;;;5064943;28;20480;-79
2022/07/17 04:05:17;;;;;;;5.95;3.38;;;9.70;99.90;;;;;;5087854;28;20059;-79
2022/07/17 04:07:43;;;;;;;5.28;3.00;;;9.70;99.90;;;;;;5098364;28;20519;-79
2022/07/17 04:10:12;;;;;;;5.15;3.17;;;9.70;99.90;;;;;;5085777;28;20043;-79
2022/07/17 04:12:38;;;;;;;4.97;2.80;;;9.70;99.90;;;;;;5084511;28;20071;-78
2022/07/17 04:15:05;;;;;;;4.93;2.90;;;9.60;99.90;;;;;;5085345;28;21940;-78
2022/07/17 04:17:30;;;;;;;3.65;2.58;;;9.60;99.90;;;;;;5087090;28;20077;-78
2022/07/17 04:19:56;;;;;;;9.57;2.90;;;9.60;99.90;;;;;;5069580;28;20041;-79
2022/07/17 04:22:22;;;;;;;5.65;2.78;;;9.60;99.90;;;;;;5086080;28;20036;-79
2022/07/17 04:24:48;;;;;;;6.00;3.25;;;9.60;99.90;;;;;;5069118;28;20111;-78
2022/07/17 04:27:14;;;;;;;5.55;2.65;;;9.60;99.90;;;;;;5070527;28;20043;-78
2022/07/17 04:29:40;;;;;;;6.43;3.13;;;9.50;99.90;;;;;;5085607;28;20093;-79
2022/07/17 04:32:07;;;;;;;9.07;3.28;;;9.50;99.90;;;;;;5068818;28;20067;-79
2022/07/17 04:34:34;;;;;;;7.63;3.53;;;9.60;99.90;;;;;;5087079;28;20032;-78
2022/07/17 04:37:01;;;;;;;7.82;3.28;;;9.60;99.90;;;;;;5060004;28;20056;-78
2022/07/17 04:39:27;;;;;;;5.70;2.90;;;9.70;99.90;;;;;;5084628;28;20039;-79
2022/07/17 04:41:53;;;;;;;8.27;3.28;;;9.70;99.90;;;;;;5087093;28;20488;-79
2022/07/17 04:44:18;;;;;;;4.18;2.97;;;9.80;99.90;;;;;;5052551;28;20036;-78
2022/07/17 04:46:45;;;;;;;7.03;3.30;;;9.90;99.90;;;;;;5070627;28;20036;-80
2022/07/17 04:49:11;;;;;;;6.05;3.15;;;9.90;99.90;;;;;;5086003;28;20036;-78
2022/07/17 04:51:37;;;;;;;7.15;3.05;;;10.00;99.90;;;;;;5087579;28;20473;-79
2022/07/17 04:54:03;;;;;;;5.93;3.20;;;10.10;99.90;;;;;;5068571;28;20031;-79
2022/07/17 04:56:29;;;;;;;6.97;3.33;;;10.10;99.90;;;;;;5067309;28;20052;-78
2022/07/17 04:58:55;;;;;;;6.53;3.30;;;10.20;99.90;;;;;;5067476;28;20557;-79
2022/07/17 05:01:20;;;;;;;10.07;3.63;;;10.30;99.90;;;;;;5068842;28;20059;-78
2022/07/17 05:03:46;;;;;;;5.95;3.28;;;10.30;99.90;;;;;;5067890;28;20567;-79
2022/07/17 05:06:12;;;;;;;7.47;3.47;;;10.40;99.90;;;;;;5086076;28;20044;-78
2022/07/17 05:08:38;;;;;;;8.18;3.40;;;10.50;99.90;;;;;;5070889;28;20036;-79
2022/07/17 05:11:03;;;;;;;8.63;3.63;;;10.60;99.90;;;;;;5053422;28;20051;-78
2022/07/17 05:13:29;;;;;;;7.10;3.22;;;10.60;99.90;;;;;;5051916;28;20097;-79
2022/07/17 05:15:55;;;;;;;7.30;3.20;;;10.70;99.90;;;;;;5070659;28;20421;-78
2022/07/17 05:18:21;;;;;;;5.20;3.20;;;10.80;99.90;;;;;;5051233;28;20482;-78
2022/07/17 05:20:46;;;;;;;4.70;3.28;;;10.80;99.90;;;;;;5069830;28;20043;-79
2022/07/17 05:23:12;;;;;;;9.18;3.30;;;10.90;99.90;;;;;;5093659;28;20158;-78
2022/07/17 05:25:38;;;;;;;7.30;3.40;;;11.00;99.90;;;;;;5098315;28;20145;-79
2022/07/17 05:28:04;;;;;;;9.18;3.45;;;11.10;99.90;;;;;;5087723;28;20043;-79
2022/07/17 05:30:30;;;;;;;5.60;3.45;;;11.20;99.90;;;;;;5085363;28;20068;-78
2022/07/17 05:32:56;;;;;;;6.82;3.05;;;11.30;99.90;;;;;;5061018;28;20040;-78
2022/07/17 05:35:22;;;;;;;4.72;3.10;;;11.40;99.90;;;;;;5088092;28;20032;-78
2022/07/17 05:37:48;;;;;;;4.97;2.58;;;11.50;99.90;;;;;;5072210;28;20035;-79
2022/07/17 05:40:14;;;;;;;8.18;2.95;;;11.60;99.90;;;;;;5088165;28;20040;-79
2022/07/17 05:42:39;;;;;;;6.05;3.40;;;11.60;99.90;;;;;;5089011;28;20032;-78
2022/07/17 05:45:06;;;;;;;5.30;2.80;;;11.80;99.90;;;;;;5100623;28;20043;-79
2022/07/17 05:47:32;;;;;;;7.40;3.08;;;11.80;99.90;;;;;;5089869;28;20035;-79
2022/07/17 05:49:57;;;;;;;5.65;2.60;;;11.90;99.90;;;;;;5076209;28;20114;-79
2022/07/17 05:52:23;;;;;;;8.68;2.75;;;12.00;99.90;;;;;;5075300;28;20047;-79
2022/07/17 05:54:49;;;;;;;7.30;3.22;;;12.00;99.90;;;;;;5075861;28;20038;-79
2022/07/17 05:57:15;;;;;;;8.30;3.35;;;12.20;99.90;;;;;;5058425;28;20050;-79
2022/07/17 05:59:41;;;;;;;6.07;3.30;;;12.20;99.90;;;;;;5059098;28;20043;-79
2022/07/17 06:02:07;;;;;;;9.23;2.70;;;12.30;99.90;;;;;;5093833;28;20235;-79
2022/07/17 06:04:33;;;;;;;8.95;2.78;;;12.30;99.90;;;;;;5073667;28;20039;-79
2022/07/17 06:06:59;;;;;;;10.63;3.53;;;12.40;99.90;;;;;;5092249;28;20043;-79
2022/07/17 06:09:24;;;;;;;5.55;2.65;;;12.50;99.90;;;;;;5076998;28;20036;-79
2022/07/17 06:11:50;;;;;;;11.45;3.17;;;12.50;99.90;;;;;;5074900;28;20036;-79
2022/07/17 06:14:16;;;;;;;6.50;2.70;;;12.60;99.90;;;;;;5061041;28;20039;-79
2022/07/17 06:16:42;;;;;;;6.13;2.30;;;12.70;99.90;;;;;;5055333;28;20032;-79
2022/07/17 06:19:07;;;;;;;5.70;2.80;;;12.80;99.90;;;;;;5091814;28;20533;-79
2022/07/17 06:21:33;;;;;;;8.18;3.55;;;12.80;99.90;;;;;;5090707;28;20891;-79
2022/07/17 06:23:59;;;;;;;4.93;2.20;;;12.90;99.90;;;;;;5093050;28;20110;-79
2022/07/17 06:26:25;;;;;;;4.05;2.38;;;13.00;99.90;;;;;;5077035;28;20434;-79
2022/07/17 06:28:51;;;;;;;4.93;2.35;;;13.00;99.90;;;;;;5059882;28;20043;-80
2022/07/17 06:31:17;;;;;;;6.22;3.20;;;13.10;99.90;;;;;;5075330;28;20058;-79
2022/07/17 06:33:43;;;;;;;4.82;2.10;;;13.00;99.90;;;;;;5063155;28;20044;-79
2022/07/17 06:36:09;;;;;;;7.13;2.40;;;13.10;99.90;;;;;;5090710;28;20050;-79
2022/07/17 06:38:35;;;;;;;5.35;2.17;;;13.10;99.90;;;;;;5074634;28;20492;-79
2022/07/17 06:41:01;;;;;;;6.38;2.20;;;13.10;99.90;;;;;;5074420;28;20058;-79
2022/07/17 06:43:27;;;;;;;3.58;2.17;;;13.20;99.90;;;;;;5092774;28;20036;-81
2022/07/17 06:45:54;;;;;;;7.00;2.10;;;13.30;99.90;;;;;;5090528;28;20414;-81
2022/07/17 06:48:23;;;;;;;7.32;2.35;;;13.40;99.90;;;;;;5092150;28;20035;-80
2022/07/17 06:50:49;;;;;;;3.72;1.80;;;13.50;99.90;;;;;;5093764;28;20048;-80
2022/07/17 06:53:15;;;;;;;5.43;1.83;;;13.60;99.90;;;;;;5072479;28;20039;-81
2022/07/17 06:55:41;;;;;;;5.57;1.80;;;13.70;99.90;;;;;;5071492;28;20103;-81
2022/07/17 06:58:07;;;;;;;4.03;1.83;;;13.90;99.90;;;;;;5091234;28;20031;-80
2022/07/17 07:00:33;;;;;;;6.45;1.95;;;14.00;99.90;;;;;;5089501;28;20038;-80
2022/07/17 07:02:58;;;;;;;6.57;1.85;;;14.10;99.90;;;;;;5075811;28;20043;-80
2022/07/17 07:05:24;;;;;;;3.10;1.90;;;14.30;99.90;;;;;;5056607;28;20035;-81
2022/07/17 07:07:50;;;;;;;3.53;1.60;;;14.40;99.90;;;;;;5086418;28;20527;-81
2022/07/17 07:10:17;;;;;;;4.55;2.22;;;14.60;99.90;;;;;;5101361;28;20055;-81
2022/07/17 07:12:43;;;;;;;6.88;1.95;;;14.70;99.90;;;;;;5087741;28;20096;-80
2022/07/17 07:15:09;;;;;;;3.50;1.70;;;14.90;99.90;;;;;;5071207;28;20031;-85
2022/07/17 07:17:35;;;;;;;5.63;1.80;;;15.10;99.90;;;;;;5059361;28;20112;-86
2022/07/17 07:20:03;;;;;;;6.30;1.67;;;15.30;99.90;;;;;;5073779;28;20461;-85
2022/07/17 07:22:30;;;;;;;4.47;1.70;;;15.60;99.90;;;;;;5071795;28;20118;-75
2022/07/17 07:24:56;;;;;;;7.28;1.70;;;15.80;99.90;;;;;;5092619;28;20122;-76
2022/07/17 07:27:22;;;;;;;5.03;1.42;;;15.90;99.90;;;;;;5073057;28;20123;-79
2022/07/17 07:29:47;;;;;;;5.78;2.00;;;16.10;99.90;;;;;;5073206;28;20401;-79
2022/07/17 07:32:13;;;;;;;36.67;3.92;;;16.20;99.90;;;;;;5090819;28;20044;-76
2022/07/17 07:34:40;;;;;;;7.75;2.75;;;16.40;99.90;;;;;;5092289;28;20036;-76
2022/07/17 07:37:05;;;;;;;7.43;2.08;;;16.30;99.90;;;;;;5073922;28;20116;-77
2022/07/17 07:39:31;;;;;;;8.88;1.50;;;16.30;99.90;;;;;;5073516;28;20377;-77
2022/07/17 07:41:57;;;;;;;8.25;2.00;;;16.30;99.90;;;;;;5090401;28;20085;-76
2022/07/17 07:44:23;;;;;;;6.18;1.60;;;16.30;99.90;;;;;;5058443;28;20046;-76
2022/07/17 07:46:49;;;;;;;5.18;1.52;;;16.30;99.90;;;;;;5057471;28;20031;-76
2022/07/17 07:49:15;;;;;;;4.55;2.30;;;16.30;99.90;;;;;;5056022;28;20092;-77
2022/07/17 07:51:41;;;;;;;4.95;1.92;;;16.30;99.90;;;;;;5089179;28;20450;-78
2022/07/17 07:54:07;;;;;;;8.02;2.40;;;16.40;99.90;;;;;;5074627;28;20039;-77
2022/07/17 07:56:33;;;;;;;4.32;1.50;;;16.50;99.90;;;;;;5044404;28;20062;-77
2022/07/17 07:58:59;;;;;;;1.92;1.45;;;16.50;99.90;;;;;;5065621;28;20040;-83
2022/07/17 08:01:25;;;;;;;7.30;2.28;;;16.50;99.90;;;;;;5088403;28;20032;-77
2022/07/17 08:03:51;;;;;;;4.18;1.45;;;16.60;99.90;;;;;;5065999;28;20039;-80
2022/07/17 08:06:19;;;;;;;3.58;1.85;;;16.70;99.90;;;;;;5047661;28;20039;-75
2022/07/17 08:08:45;;;;;;;2.70;1.70;;;16.80;99.90;;;;;;5041535;28;20043;-79
2022/07/17 08:11:10;;;;;;;4.75;1.60;;;17.00;99.90;;;;;;5072311;28;20040;-76
2022/07/17 08:13:36;;;;;;;6.30;1.80;;;17.10;99.90;;;;;;5069751;28;20035;-78
2022/07/17 08:16:02;;;;;;;9.90;1.73;;;17.20;99.90;;;;;;5091644;28;20058;-82
2022/07/17 08:18:28;;;;;;;5.18;1.85;;;17.30;99.90;;;;;;5078165;28;20096;-76
2022/07/17 08:20:54;;;;;;;4.22;1.65;;;17.30;99.90;;;;;;5070547;28;20381;-80
2022/07/17 08:23:21;;;;;;;6.75;1.70;;;17.40;99.90;;;;;;5091836;28;20046;-78
2022/07/17 08:25:47;;;;;;;6.57;1.98;;;17.40;99.90;;;;;;5087045;28;20170;-80
2022/07/17 08:28:14;;;;;;;5.97;1.40;;;17.30;99.90;;;;;;5072989;28;20071;-74
2022/07/17 08:30:40;;;;;;;3.85;1.67;;;17.40;99.90;;;;;;5088959;28;20043;-78
2022/07/17 08:33:08;;;;;;;4.60;1.98;;;17.40;99.90;;;;;;5074145;28;20507;-83
2022/07/17 08:35:35;;;;;;;4.80;2.20;;;17.50;99.90;;;;;;5070106;28;20134;-81
2022/07/17 08:38:01;;;;;;;7.25;1.63;;;17.60;99.90;;;;;;5071999;28;20024;-78
2022/07/17 08:40:32;;;;;;;5.00;1.55;;;17.70;99.90;;;;;;5073405;28;20039;-77
2022/07/17 08:43:02;;;;;;;4.32;1.48;;;17.90;99.90;;;;;;5087533;28;20384;-76
2022/07/17 08:45:28;;;;;;;3.55;1.83;;;17.90;99.90;;;;;;5085310;28;20047;-77
2022/07/17 08:47:55;;;;;;;6.75;1.73;;;18.00;99.90;;;;;;5073621;28;20093;-77
2022/07/17 08:50:33;;;;;;;8.88;1.65;;;18.10;99.90;;;;;;5085981;28;20046;-85
2022/07/17 08:53:00;;;;;;;4.30;1.60;;;18.20;99.90;;;;;;5055965;28;20047;-85
2022/07/17 08:55:27;;;;;;;6.47;1.63;;;18.40;99.90;;;;;;5083161;28;20031;-85
2022/07/17 08:57:52;;;;;;;6.50;1.73;;;18.50;99.90;;;;;;5079079;28;20032;-85
2022/07/17 09:00:22;;;;;;;7.03;1.65;;;18.70;99.90;;;;;;5084687;28;20443;-84
2022/07/17 09:02:57;;;;;;;5.03;1.70;;;18.80;99.90;;;;;;5090542;28;20043;-84
2022/07/17 09:05:25;;;;;;;4.22;1.50;;;19.00;99.90;;;;;;5064024;28;20130;-84
2022/07/17 09:07:51;;;;;;;3.03;1.52;;;19.00;99.90;;;;;;5057284;28;20051;-84
2022/07/17 09:10:17;;;;;;;5.15;1.85;;;19.00;99.90;;;;;;5078538;28;20563;-84
2022/07/17 09:12:43;;;;;;;4.00;1.52;;;19.10;99.90;;;;;;5055412;28;20083;-84
2022/07/17 09:15:18;;;;;;;4.30;1.65;;;19.20;99.90;;;;;;5078760;28;20039;-85
2022/07/17 09:18:02;;;;;;;6.10;2.30;;;19.30;99.90;;;;;;5084248;28;20031;-85
2022/07/17 09:20:28;;;;;;;4.28;1.60;;;19.40;99.90;;;;;;5078384;28;20059;-85
2022/07/17 09:22:59;;;;;;;5.95;1.73;;;19.50;99.90;;;;;;5068453;28;20074;-84
2022/07/17 09:25:41;;;;;;;5.07;1.80;;;19.60;99.90;;;;;;5065257;28;20040;-85
2022/07/17 09:28:08;;;;;;;2.25;1.30;;;19.80;99.70;;;;;;5080051;28;20467;-85
2022/07/17 09:30:37;;;;;;;6.68;2.10;;;19.80;99.70;;;;;;5077181;28;20039;-84
2022/07/17 09:33:06;;;;;;;5.95;1.75;;;19.90;99.60;;;;;;5101659;28;20047;-85
2022/07/17 09:35:32;;;;;;;6.47;1.95;;;19.90;99.30;;;;;;5080891;28;20063;-85
2022/07/17 09:37:58;;;;;;;3.40;1.50;;;20.00;99.40;;;;;;5043603;28;20468;-85
2022/07/17 09:43:08;;;;;;;6.38;1.80;;;20.20;99.30;;;;;;5069282;28;20032;-85
2022/07/17 09:45:35;;;;;;;3.83;1.42;;;20.30;99.30;;;;;;5064651;28;20577;-83
2022/07/17 09:48:02;;;;;;;8.70;4.60;;;20.40;99.10;;;;;;5095533;28;20039;-85
2022/07/17 09:50:28;;;;;;;4.15;1.48;;;20.50;98.60;;;;;;5059600;28;20435;-85
2022/07/17 09:52:57;;;;;;;7.28;1.88;;;20.70;98.50;;;;;;5097062;28;20039;-85
2022/07/17 09:55:28;;;;;;;7.38;1.83;;;20.80;98.40;;;;;;5067851;28;20040;-85
2022/07/17 09:57:55;;;;;;;5.07;1.80;;;20.90;98.00;;;;;;5092619;28;20540;-85
2022/07/17 10:00:22;;;;;;;6.63;1.85;;;20.90;98.10;;;;;;5063788;28;20051;-85
2022/07/17 10:02:48;;;;;;;12.57;1.80;;;20.90;98.10;;;;;;5078743;28;20039;-85
2022/07/17 10:05:15;;;;;;;5.15;1.80;;;21.00;98.10;;;;;;5071765;28;20111;-85
2022/07/17 10:07:45;;;;;;;5.80;1.48;;;21.10;97.30;;;;;;5073034;28;20122;-84
2022/07/17 10:10:11;;;;;;;5.30;2.10;;;21.20;97.10;;;;;;5066136;28;20114;-84
2022/07/17 10:12:39;;;;;;;3.67;1.58;;;21.30;96.80;;;;;;5077741;28;20472;-80
2022/07/17 10:15:07;;;;;;;10.27;2.45;;;21.30;96.70;;;;;;5054834;28;20121;-76
2022/07/17 10:17:33;;;;;;;2.80;1.45;;;21.30;96.20;;;;;;5092366;28;20040;-77
2022/07/17 10:19:59;;;;;;;4.63;1.60;;;21.30;96.10;;;;;;5092396;28;20354;-75
2022/07/17 10:22:25;;;;;;;4.72;1.42;;;21.40;96.10;;;;;;5091195;28;20067;-74
2022/07/17 10:24:56;;;;;;;10.50;2.05;;;21.50;96.00;;;;;;5067309;28;20032;-76
2022/07/17 10:27:29;;;;;;;7.15;1.52;;;21.60;95.60;;;;;;5071780;28;20576;-75
2022/07/17 10:30:09;;;;;;;4.65;1.60;;;21.60;95.60;;;;;;5060769;28;20046;-75
2022/07/17 10:32:36;;;;;;;3.08;1.60;;;21.80;95.70;;;;;;5062136;28;20048;-74
2022/07/17 10:35:11;;;;;;;5.90;1.60;;;22.00;95.50;;;;;;5066954;28;20044;-78
2022/07/17 10:37:36;;;;;;;6.05;1.65;;;22.10;94.90;;;;;;5094216;28;20101;-75
2022/07/17 10:40:10;;;;;;;6.25;1.80;;;22.10;95.10;;;;;;5056360;28;20489;-76
2022/07/17 10:42:38;;;;;;;7.68;1.58;;;22.20;95.00;;;;;;5061248;28;20055;-74
2022/07/17 10:45:14;;;;;;;4.57;1.48;;;22.30;95.20;;;;;;5062117;28;20077;-77
2022/07/17 10:47:55;;;;;;;4.15;1.38;;;22.40;95.30;;;;;;5086418;28;20036;-77
2022/07/17 10:50:40;;;;;;;6.30;2.00;;;22.50;95.30;;;;;;5074199;28;20040;-75
2022/07/17 10:53:12;;;;;;;6.20;1.65;;;22.50;94.80;;;;;;5087175;28;20110;-74
2022/07/17 10:55:42;;;;;;;3.78;1.65;;;22.40;94.50;;;;;;5068246;28;20036;-74
2022/07/17 10:58:22;;;;;;;4.28;1.70;;;22.70;94.80;;;;;;5067670;28;20033;-74
2022/07/17 11:01:09;;;;;;;5.40;1.48;;;22.70;94.30;;;;;;5085210;28;20071;-74
2022/07/17 11:03:43;;;;;;;5.13;2.15;;;22.80;94.90;;;;;;5084609;28;20054;-75
2022/07/17 11:06:31;;;;;;;4.28;1.60;;;23.00;94.80;;;;;;5084430;28;20040;-75
2022/07/17 11:09:11;;;;;;;5.47;1.60;;;23.20;93.80;;;;;;5071988;28;20386;-75
2022/07/17 11:11:41;;;;;;;3.60;2.20;;;23.20;93.60;;;;;;5070760;28;20047;-76
2022/07/17 11:14:24;;;;;;;3.25;1.40;;;23.20;93.60;;;;;;5086375;28;20051;-75
2022/07/17 11:17:02;;;;;;;4.60;1.75;;;23.20;93.90;;;;;;5087922;28;20043;-78
2022/07/17 11:19:30;;;;;;;5.57;1.50;;;23.30;93.40;;;;;;5096231;28;20044;-76
2022/07/17 11:21:58;;;;;;;4.60;1.50;;;23.50;93.50;;;;;;5087581;28;20032;-76
2022/07/17 11:24:26;;;;;;;5.07;1.50;;;23.40;93.10;;;;;;5088898;28;20400;-77
2022/07/17 11:26:52;;;;;;;4.88;1.92;;;23.30;93.40;;;;;;5088779;28;20378;-78
2022/07/17 11:29:18;;;;;;;4.68;1.45;;;23.30;93.50;;;;;;5071992;28;20044;-77
2022/07/17 11:31:44;;;;;;;3.05;1.42;;;23.50;93.50;;;;;;5085264;28;20505;-78
2022/07/17 11:34:11;;;;;;;5.05;1.92;;;23.50;93.20;;;;;;5055624;28;20290;-76
2022/07/17 11:36:41;;;;;;;7.00;1.60;;;23.60;93.20;;;;;;5089729;28;20173;-79
2022/07/17 11:39:14;;;;;;;2.05;1.15;;;23.70;92.80;;;;;;5084190;28;20356;-76
2022/07/17 11:41:46;;;;;;;2.30;1.40;;;23.80;92.20;;;;;;5086191;28;20035;-75
2022/07/17 11:44:23;;;;;;;5.18;1.83;;;23.80;92.30;;;;;;5067192;28;20037;-75
2022/07/17 11:46:50;;;;;;;3.75;1.55;;;23.90;91.80;;;;;;5083723;28;20201;-76
2022/07/17 11:49:26;;;;;;;5.50;1.90;;;23.90;92.30;;;;;;5087491;28;20048;-77
2022/07/17 11:51:54;;;;;;;5.85;1.70;;;23.90;92.20;;;;;;5086080;28;20455;-74
2022/07/17 11:54:20;;;;;;;4.20;1.50;;;24.00;92.20;;;;;;5067610;28;20320;-74
2022/07/17 11:57:02;;;;;;;5.07;1.60;;;24.10;91.80;;;;;;5070492;28;20123;-74
2022/07/17 11:59:32;;;;;;;3.63;1.50;;;23.90;91.00;;;;;;5067709;28;20266;-76
2022/07/17 12:02:07;;;;;;;4.82;1.85;;;23.90;91.70;;;;;;5100419;28;20107;-74
2022/07/17 12:04:33;;;;;;;4.68;1.58;;;23.90;91.50;;;;;;5067785;28;20540;-74
2022/07/17 12:07:01;;;;;;;5.22;1.80;;;24.10;92.00;;;;;;5070939;28;20071;-75
2022/07/17 12:09:28;;;;;;;2.45;1.52;;;24.30;91.90;;;;;;5082851;28;20043;-74
2022/07/17 12:11:54;;;;;;;3.92;1.70;;;24.20;91.40;;;;;;5067244;28;20040;-75
2022/07/17 12:14:20;;;;;;;5.00;1.60;;;24.20;90.80;;;;;;5052831;28;20054;-74
2022/07/17 12:16:46;;;;;;;6.00;2.10;;;24.20;91.00;;;;;;5069895;28;20121;-75
2022/07/17 12:19:18;;;;;;;4.55;2.10;;;24.20;90.90;;;;;;5068862;28;20039;-74
2022/07/17 12:22:03;;;;;;;;;;;24.20;91.20;;;;;;5077801;28;20039;-74
2022/07/17 12:24:35;;;;;;;3.47;1.60;;;24.30;91.20;;;;;;5072811;28;20506;-74
2022/07/17 12:27:02;;;;;;;;;;;24.30;91.50;;;;;;5093393;28;20545;-74
2022/07/17 12:29:28;;;;;;;3.65;1.52;;;24.30;91.10;;;;;;5083297;28;19916;-74
2022/07/17 12:32:21;;;;;;;4.75;1.88;;;24.40;91.30;;;;;;5082794;28;20058;-74
2022/07/17 12:34:49;;;;;;;6.38;1.75;;;24.40;90.50;;;;;;5065480;28;20108;-74
2022/07/17 12:37:21;;;;;;;5.57;3.13;;;24.50;90.70;;;;;;5083493;28;20072;-76
2022/07/17 12:39:48;;;;;;;9.05;6.25;;;24.50;90.80;;;;;;5085156;28;20036;-74
2022/07/17 12:42:15;;;;;;;4.80;2.55;;;24.60;91.00;;;;;;5061504;28;20135;-76
2022/07/17 12:44:42;;;;;;;3.30;1.70;;;24.40;90.30;;;;;;5063286;28;20098;-76
2022/07/17 12:47:08;;;;;;;4.28;1.67;;;24.60;90.60;;;;;;5068195;28;20040;-75
2022/07/17 12:49:34;;;;;;;3.08;1.73;;;24.60;90.30;;;;;;5064664;28;20142;-75
2022/07/17 12:52:00;;;;;;;5.53;2.15;;;24.70;90.70;;;;;;5069928;28;20831;-75